createdAt,value
2022-08-21T00:01:12.288Z,2.22
2022-08-21T00:06:13.842Z,2.15
2022-08-21T00:08:44.643Z,2.53
2022-08-21T00:11:15.031Z,2.58
2022-08-21T00:13:45.606Z,2.50
2022-08-21T00:16:15.347Z,2.03
2022-08-21T00:18:45.083Z,2.42
2022-08-21T00:21:16.148Z,1.40
2022-08-21T00:23:46.201Z,1.33
2022-08-21T00:28:47.754Z,0.95
2022-08-21T00:31:19.097Z,1.17
2022-08-21T00:33:49.161Z,1.58
2022-08-21T00:36:19.055Z,1.60
2022-08-21T00:38:48.777Z,1.83
2022-08-21T00:41:36.882Z,1.60
2022-08-21T00:44:12.162Z,1.55
2022-08-21T00:46:43.237Z,1.63
2022-08-21T00:49:14.435Z,1.63
2022-08-21T00:51:52.534Z,1.92
2022-08-21T00:54:26.929Z,1.92
2022-08-21T00:57:02.665Z,1.88
2022-08-21T00:59:37.508Z,2.10
2022-08-21T01:02:10.191Z,2.45
2022-08-21T01:04:40.849Z,3.03
2022-08-21T01:07:11.186Z,2.00
2022-08-21T01:09:41.277Z,1.70
2022-08-21T01:12:12.368Z,1.42
2022-08-21T01:14:44.919Z,1.70
2022-08-21T01:17:17.861Z,1.60
2022-08-21T01:19:48.015Z,1.73
2022-08-21T01:22:17.886Z,1.60
2022-08-21T01:24:47.813Z,1.35
2022-08-21T01:30:16.923Z,2.20
2022-08-21T01:32:48.205Z,3.65
2022-08-21T01:35:19.579Z,5.53
2022-08-21T01:37:50.732Z,4.82
2022-08-21T01:40:21.284Z,4.15
2022-08-21T01:42:53.005Z,5.45
2022-08-21T01:45:23.259Z,4.82
2022-08-21T01:47:53.025Z,4.07
2022-08-21T01:50:23.726Z,2.15
2022-08-21T01:52:54.162Z,2.50
2022-08-21T01:55:25.372Z,2.85
2022-08-21T01:57:56.693Z,3.60
2022-08-21T02:00:27.221Z,3.28
2022-08-21T02:05:26.764Z,2.30
2022-08-21T02:07:57.550Z,3.05
2022-08-21T02:10:31.127Z,2.42
2022-08-21T02:13:02.674Z,2.50
2022-08-21T02:15:33.555Z,2.45
2022-08-21T02:18:04.622Z,2.05
2022-08-21T02:20:38.694Z,2.00
2022-08-21T02:23:10.971Z,2.45
2022-08-21T02:25:41.253Z,1.85
2022-08-21T02:28:15.036Z,2.08
2022-08-21T02:30:50.240Z,1.92
2022-08-21T02:33:21.151Z,1.65
2022-08-21T02:35:52.595Z,1.40
2022-08-21T02:38:26.151Z,2.20
2022-08-21T02:40:57.837Z,2.20
2022-08-21T02:43:31.241Z,2.45
2022-08-21T02:46:01.872Z,2.33
2022-08-21T02:48:33.598Z,2.38
2022-08-21T02:51:19.875Z,2.67
2022-08-21T02:53:50.855Z,2.08
2022-08-21T02:56:23.904Z,2.35
2022-08-21T02:58:55.232Z,2.60
2022-08-21T03:03:54.478Z,1.88
2022-08-21T03:06:27.013Z,2.58
2022-08-21T03:08:56.940Z,1.95
2022-08-21T03:11:28.588Z,2.08
2022-08-21T03:13:58.647Z,2.33
2022-08-21T03:16:31.978Z,2.13
2022-08-21T03:21:35.241Z,1.85
2022-08-21T03:24:06.894Z,2.83
2022-08-21T03:26:37.879Z,2.53
2022-08-21T03:29:11.719Z,2.10
2022-08-21T03:31:41.777Z,2.58
2022-08-21T03:36:41.875Z,2.25
2022-08-21T03:39:11.770Z,2.35
2022-08-21T03:41:41.487Z,2.00
2022-08-21T03:44:11.207Z,2.60
2022-08-21T03:46:43.134Z,3.22
2022-08-21T03:49:13.958Z,2.75
2022-08-21T03:51:44.610Z,3.25
2022-08-21T03:54:14.394Z,3.30
2022-08-21T03:56:44.221Z,4.05
2022-08-21T03:59:14.536Z,4.38
2022-08-21T04:01:55.150Z,5.10
2022-08-21T04:04:25.794Z,5.38
2022-08-21T04:06:56.006Z,3.88
2022-08-21T04:09:26.885Z,3.58
2022-08-21T04:11:57.032Z,4.60
2022-08-21T04:14:26.745Z,5.60
2022-08-21T04:16:56.669Z,5.68
2022-08-21T04:19:26.376Z,5.20
2022-08-21T04:21:56.161Z,5.50
2022-08-21T04:24:25.877Z,6.32
2022-08-21T04:27:00.173Z,6.57
2022-08-21T04:29:29.915Z,6.93
2022-08-21T04:31:59.628Z,6.47
2022-08-21T04:34:29.384Z,6.03
2022-08-21T04:36:59.119Z,6.30
2022-08-21T04:39:29.695Z,5.97
2022-08-21T04:42:00.045Z,6.80
2022-08-21T04:44:30.175Z,6.85
2022-08-21T04:47:00.183Z,6.03
2022-08-21T04:49:29.895Z,5.10
2022-08-21T04:51:59.784Z,4.55
2022-08-21T04:54:29.911Z,4.70
2022-08-21T04:57:07.513Z,4.72
2022-08-21T04:59:55.637Z,4.63
2022-08-21T05:02:25.759Z,4.13
2022-08-21T05:04:57.830Z,3.80
2022-08-21T05:07:42.162Z,4.40
2022-08-21T05:10:14.325Z,3.65
2022-08-21T05:12:46.367Z,3.80
2022-08-21T05:15:16.391Z,4.93
2022-08-21T05:17:53.567Z,4.32
2022-08-21T05:20:31.269Z,4.40
2022-08-21T05:23:01.369Z,3.97
2022-08-21T05:25:31.243Z,3.72
2022-08-21T05:28:01.046Z,4.80
2022-08-21T05:30:30.869Z,4.13
2022-08-21T05:33:02.515Z,4.80
2022-08-21T05:35:33.262Z,4.30
2022-08-21T05:38:03.245Z,3.90
2022-08-21T05:40:33.460Z,4.63
2022-08-21T05:43:03.636Z,4.57
2022-08-21T05:45:43.521Z,4.05
2022-08-21T05:48:16.262Z,3.80
2022-08-21T05:50:48.278Z,4.28
2022-08-21T05:53:19.623Z,4.00
2022-08-21T05:55:50.511Z,4.28
2022-08-21T05:58:23.590Z,3.63
2022-08-21T06:00:54.899Z,3.95
2022-08-21T06:03:30.739Z,5.05
2022-08-21T06:06:01.116Z,4.97
2022-08-21T06:08:32.633Z,4.80
2022-08-21T06:11:05.208Z,5.03
2022-08-21T06:13:36.473Z,5.10
2022-08-21T06:16:16.313Z,4.13
2022-08-21T06:18:47.618Z,4.82
2022-08-21T06:21:18.431Z,5.07
2022-08-21T06:23:49.844Z,4.82
2022-08-21T06:26:20.957Z,4.50
2022-08-21T06:28:51.543Z,3.80
2022-08-21T06:31:24.949Z,4.63
2022-08-21T06:33:55.533Z,4.82
2022-08-21T06:36:25.590Z,4.97
2022-08-21T06:41:28.120Z,6.20
2022-08-21T06:43:59.274Z,7.43
2022-08-21T06:46:32.137Z,8.73
2022-08-21T06:49:02.977Z,9.20
2022-08-21T06:51:33.029Z,8.55
2022-08-21T06:54:02.824Z,8.50
2022-08-21T06:59:02.237Z,8.27
2022-08-21T07:01:32.128Z,9.27
2022-08-21T07:04:04.756Z,10.18
2022-08-21T07:06:35.075Z,9.85
2022-08-21T07:09:06.503Z,9.35
2022-08-21T07:11:43.159Z,8.35
2022-08-21T07:14:20.031Z,9.98
2022-08-21T07:16:53.245Z,10.00
2022-08-21T07:19:23.693Z,8.95
2022-08-21T07:21:54.650Z,10.65
2022-08-21T07:24:24.366Z,8.90
2022-08-21T07:26:54.134Z,9.30
2022-08-21T07:29:23.979Z,9.95
2022-08-21T07:31:53.916Z,10.05
2022-08-21T07:34:23.639Z,9.88
2022-08-21T07:36:54.217Z,9.95
2022-08-21T07:39:24.448Z,9.30
2022-08-21T07:41:54.406Z,9.90
2022-08-21T07:44:24.159Z,7.47
2022-08-21T07:46:53.870Z,9.32
2022-08-21T07:49:23.593Z,10.07
2022-08-21T07:51:53.959Z,8.52
2022-08-21T07:54:31.038Z,9.05
2022-08-21T07:57:04.664Z,8.45
2022-08-21T07:59:34.553Z,8.25
2022-08-21T08:02:04.523Z,9.60
2022-08-21T08:07:03.464Z,7.18
2022-08-21T08:09:33.201Z,7.60
2022-08-21T08:12:02.947Z,7.47
2022-08-21T08:14:33.564Z,6.93
2022-08-21T08:17:04.461Z,7.60
2022-08-21T08:19:34.577Z,7.88
2022-08-21T08:22:04.368Z,7.97
2022-08-21T08:24:34.081Z,7.07
2022-08-21T08:27:03.808Z,7.65
2022-08-21T08:29:33.550Z,7.07
2022-08-21T08:32:03.428Z,6.55
2022-08-21T08:34:33.605Z,7.63
2022-08-21T08:37:03.827Z,6.05
2022-08-21T08:39:36.943Z,6.65
2022-08-21T08:42:34.067Z,6.50
2022-08-21T08:45:10.807Z,6.60
2022-08-21T08:47:48.683Z,6.78
2022-08-21T08:50:28.625Z,6.47
2022-08-21T08:53:06.306Z,6.03
2022-08-21T08:55:40.640Z,6.28
2022-08-21T08:58:19.360Z,5.65
2022-08-21T09:00:53.320Z,5.75
2022-08-21T09:03:29.499Z,7.00
2022-08-21T09:06:05.667Z,6.65
2022-08-21T09:08:52.841Z,6.63
2022-08-21T09:11:36.665Z,6.68
2022-08-21T09:14:19.033Z,6.07
2022-08-21T09:17:17.859Z,7.10
2022-08-21T09:20:00.945Z,6.53
2022-08-21T09:22:52.175Z,6.93
2022-08-21T09:25:28.942Z,6.97
2022-08-21T09:27:59.512Z,6.63
2022-08-21T09:30:33.110Z,6.57
2022-08-21T09:33:03.304Z,6.35
2022-08-21T09:35:34.526Z,6.35
2022-08-21T09:38:09.614Z,6.90
2022-08-21T09:40:49.977Z,6.10
2022-08-21T09:43:27.471Z,7.47
2022-08-21T09:46:13.294Z,7.38
2022-08-21T09:48:52.253Z,6.93
2022-08-21T09:51:38.724Z,6.85
2022-08-21T09:54:09.719Z,6.20
2022-08-21T09:57:12.057Z,6.15
2022-08-21T09:59:42.464Z,6.70
2022-08-21T10:02:36.596Z,7.68
2022-08-21T10:05:30.691Z,6.53
2022-08-21T10:08:00.632Z,7.68
2022-08-21T10:10:38.552Z,7.30
2022-08-21T10:13:37.181Z,6.53
2022-08-21T10:16:53.617Z,6.95
2022-08-21T10:19:35.050Z,6.70
2022-08-21T10:22:08.255Z,6.88
2022-08-21T10:25:01.087Z,7.07
2022-08-21T10:27:42.111Z,5.53
2022-08-21T10:30:21.971Z,6.85
2022-08-21T10:33:10.892Z,6.15
2022-08-21T10:35:46.723Z,7.93
2022-08-21T10:38:48.827Z,7.00
2022-08-21T10:41:38.995Z,6.10
2022-08-21T10:44:24.606Z,6.95
2022-08-21T10:47:11.167Z,7.80
2022-08-21T10:50:06.037Z,6.65
2022-08-21T10:53:08.354Z,8.02
2022-08-21T10:55:58.273Z,6.30
2022-08-21T10:58:48.791Z,6.93
2022-08-21T11:01:31.084Z,7.18
2022-08-21T11:04:14.791Z,6.97
2022-08-21T11:07:02.556Z,7.90
2022-08-21T11:09:35.528Z,7.85
2022-08-21T11:12:38.483Z,10.00
2022-08-21T11:15:50.265Z,11.18
2022-08-21T11:18:41.550Z,9.27
2022-08-21T11:21:41.040Z,7.28
2022-08-21T11:24:38.895Z,7.22
2022-08-21T11:27:45.799Z,7.82
2022-08-21T11:30:17.287Z,7.88
2022-08-21T11:33:05.467Z,7.32
2022-08-21T11:35:39.423Z,6.85
2022-08-21T11:38:31.162Z,6.90
2022-08-21T11:41:24.321Z,6.50
2022-08-21T11:44:23.542Z,7.65
2022-08-21T11:47:15.489Z,6.85
2022-08-21T11:50:34.248Z,6.50
2022-08-21T11:53:21.562Z,5.97
2022-08-21T11:56:06.356Z,6.45
2022-08-21T11:58:46.903Z,5.68
2022-08-21T12:01:27.454Z,6.20
2022-08-21T12:04:23.259Z,5.28
2022-08-21T12:06:56.799Z,6.07
2022-08-21T12:09:26.474Z,6.05
2022-08-21T12:12:13.130Z,5.30
2022-08-21T12:14:49.474Z,5.38
2022-08-21T12:17:25.040Z,5.97
2022-08-21T12:20:38.754Z,5.25
2022-08-21T12:23:15.787Z,5.65
2022-08-21T12:26:23.190Z,4.45
2022-08-21T12:28:53.969Z,4.18
2022-08-21T12:31:28.167Z,4.70
2022-08-21T12:34:05.353Z,4.32
2022-08-21T12:36:48.318Z,3.85
2022-08-21T12:39:28.054Z,3.75
2022-08-21T12:42:03.449Z,4.32
2022-08-21T12:44:42.002Z,4.03
2022-08-21T12:47:52.197Z,4.20
2022-08-21T12:50:51.881Z,3.70
2022-08-21T12:53:58.886Z,3.78
2022-08-21T12:56:32.679Z,4.47
2022-08-21T12:59:08.716Z,4.70
2022-08-21T13:01:49.598Z,4.57
2022-08-21T13:04:23.227Z,5.32
2022-08-21T13:06:57.345Z,4.07
2022-08-21T13:09:30.685Z,3.83
2022-08-21T13:12:02.902Z,4.03
2022-08-21T13:14:49.891Z,3.53
2022-08-21T13:17:25.868Z,3.92
2022-08-21T13:19:59.068Z,3.53
2022-08-21T13:22:33.869Z,3.22
2022-08-21T13:25:11.777Z,2.22
2022-08-21T13:27:42.349Z,2.47
2022-08-21T13:30:24.552Z,3.70
2022-08-21T13:32:59.678Z,3.22
2022-08-21T13:38:00.667Z,3.60
2022-08-21T13:40:45.228Z,2.95
2022-08-21T13:43:21.323Z,3.08
2022-08-21T13:45:57.224Z,2.83
2022-08-21T13:48:31.281Z,2.90
2022-08-21T13:51:02.943Z,2.80
2022-08-21T13:53:46.995Z,2.97
2022-08-21T13:56:32.443Z,3.63
2022-08-21T13:59:03.912Z,4.95
2022-08-21T14:02:01.324Z,3.47
2022-08-21T14:04:57.120Z,3.75
2022-08-21T14:07:35.488Z,2.47
2022-08-21T14:10:25.516Z,2.65
2022-08-21T14:12:59.098Z,3.20
2022-08-21T14:15:33.764Z,2.33
2022-08-21T14:18:30.540Z,2.88
2022-08-21T14:21:09.008Z,2.60
2022-08-21T14:23:41.399Z,2.67
2022-08-21T14:26:12.184Z,2.35
2022-08-21T14:28:45.189Z,3.00
2022-08-21T14:31:18.632Z,2.65
2022-08-21T14:33:50.411Z,2.08
2022-08-21T14:36:21.601Z,2.15
2022-08-21T14:38:51.576Z,2.00
2022-08-21T14:41:26.251Z,1.80
2022-08-21T14:44:05.755Z,2.25
2022-08-21T14:46:45.827Z,2.50
2022-08-21T14:49:31.987Z,2.33
2022-08-21T14:52:02.190Z,2.33
2022-08-21T14:54:33.548Z,2.17
2022-08-21T14:57:12.333Z,2.15
2022-08-21T14:59:43.148Z,2.20
2022-08-21T15:02:13.609Z,2.30
2022-08-21T15:04:45.531Z,2.10
2022-08-21T15:07:16.511Z,4.40
2022-08-21T15:09:46.458Z,1.92
2022-08-21T15:12:17.579Z,2.38
2022-08-21T15:14:47.715Z,2.30
2022-08-21T15:17:17.723Z,2.25
2022-08-21T15:19:47.687Z,2.30
2022-08-21T15:22:19.078Z,2.10
2022-08-21T15:24:57.736Z,1.95
2022-08-21T15:27:27.478Z,1.92
2022-08-21T15:29:57.967Z,2.03
2022-08-21T15:32:31.363Z,1.90
2022-08-21T15:35:01.520Z,2.67
2022-08-21T15:37:32.206Z,2.97
2022-08-21T15:40:02.701Z,2.60
2022-08-21T15:42:33.005Z,2.40
2022-08-21T15:45:03.234Z,2.47
2022-08-21T15:47:36.615Z,2.58
2022-08-21T15:50:10.924Z,2.60
2022-08-21T15:52:41.612Z,2.50
2022-08-21T15:55:12.228Z,2.63
2022-08-21T15:57:58.125Z,2.92
2022-08-21T16:00:30.116Z,2.67
2022-08-21T16:03:01.749Z,3.13
2022-08-21T16:05:32.176Z,2.72
2022-08-21T16:08:02.058Z,3.38
2022-08-21T16:10:33.148Z,2.95
2022-08-21T16:13:08.920Z,3.67
2022-08-21T16:15:39.269Z,3.60
2022-08-21T16:18:09.423Z,4.00
2022-08-21T16:20:39.186Z,3.90
2022-08-21T16:23:08.996Z,3.67
2022-08-21T16:25:42.404Z,3.80
2022-08-21T16:28:16.968Z,3.50
2022-08-21T16:30:49.789Z,3.30
2022-08-21T16:33:44.527Z,3.53
2022-08-21T16:36:16.258Z,3.38
2022-08-21T16:38:46.557Z,3.78
2022-08-21T16:41:20.818Z,3.80
2022-08-21T16:43:52.410Z,3.58
2022-08-21T16:46:23.215Z,3.60
2022-08-21T16:48:53.263Z,3.80
2022-08-21T16:51:23.015Z,3.97
2022-08-21T16:53:53.450Z,4.30
2022-08-21T16:56:24.009Z,4.03
2022-08-21T16:58:56.709Z,4.40
2022-08-21T17:01:31.312Z,3.80
2022-08-21T17:04:02.296Z,5.30
2022-08-21T17:06:32.409Z,4.43
2022-08-21T17:09:02.538Z,3.40
2022-08-21T17:11:40.015Z,3.55
2022-08-21T17:14:17.345Z,4.45
2022-08-21T17:16:51.271Z,3.83
2022-08-21T17:19:21.628Z,3.92
2022-08-21T17:21:51.756Z,3.70
2022-08-21T17:24:22.474Z,3.63
2022-08-21T17:26:54.392Z,3.67
2022-08-21T17:29:29.568Z,3.67
2022-08-21T17:32:00.605Z,3.50
2022-08-21T17:34:31.968Z,3.78
2022-08-21T17:37:02.370Z,3.70
2022-08-21T17:39:32.201Z,3.80
2022-08-21T17:42:06.191Z,4.07
2022-08-21T17:44:39.520Z,3.28
2022-08-21T17:47:10.398Z,3.40
2022-08-21T17:49:40.570Z,2.90
2022-08-21T17:52:10.896Z,3.35
2022-08-21T17:54:42.397Z,3.50
2022-08-21T17:57:22.751Z,3.55
2022-08-21T17:59:58.073Z,4.07
2022-08-21T18:02:28.690Z,3.45
2022-08-21T18:04:58.483Z,3.70
2022-08-21T18:07:32.143Z,3.33
2022-08-21T18:10:06.769Z,3.10
2022-08-21T18:12:37.007Z,3.45
2022-08-21T18:15:07.708Z,3.65
2022-08-21T18:17:38.306Z,3.25
2022-08-21T18:20:09.298Z,3.55
2022-08-21T18:22:39.200Z,3.22
2022-08-21T18:25:09.953Z,3.45
2022-08-21T18:27:43.682Z,3.72
2022-08-21T18:30:15.603Z,3.35
2022-08-21T18:32:46.396Z,3.17
2022-08-21T18:35:17.872Z,3.60
2022-08-21T18:37:47.956Z,3.58
2022-08-21T18:40:17.788Z,3.50
2022-08-21T18:42:55.854Z,3.97
2022-08-21T18:45:26.242Z,3.22
2022-08-21T18:47:58.882Z,3.33
2022-08-21T18:50:30.289Z,3.50
2022-08-21T18:53:00.834Z,3.33
2022-08-21T18:55:31.217Z,3.90
2022-08-21T18:58:01.549Z,4.13
2022-08-21T19:00:36.989Z,4.22
2022-08-21T19:06:11.800Z,4.40
2022-08-21T19:08:42.223Z,3.88
2022-08-21T19:11:12.072Z,4.03
2022-08-21T19:13:42.185Z,3.72
2022-08-21T19:16:12.170Z,3.92
2022-08-21T19:18:43.146Z,4.20
2022-08-21T19:21:13.564Z,4.63
2022-08-21T19:23:44.479Z,4.30
2022-08-21T19:26:14.663Z,3.95
2022-08-21T19:28:51.911Z,3.85
2022-08-21T19:31:29.113Z,4.32
2022-08-21T19:34:16.206Z,4.30
2022-08-21T19:36:46.706Z,5.38
2022-08-21T19:39:19.423Z,5.22
2022-08-21T19:41:55.474Z,5.18
2022-08-21T19:44:30.548Z,5.50
2022-08-21T19:47:05.585Z,5.57
2022-08-21T19:49:36.843Z,6.22
2022-08-21T19:52:13.124Z,6.20
2022-08-21T19:54:45.788Z,5.47
2022-08-21T19:57:16.200Z,6.22
2022-08-21T19:59:49.001Z,5.85
2022-08-21T20:02:20.798Z,5.15
2022-08-21T20:04:54.059Z,6.05
2022-08-21T20:07:40.883Z,5.38
2022-08-21T20:10:10.839Z,6.63
2022-08-21T20:12:42.061Z,5.22
2022-08-21T20:15:12.561Z,5.45
2022-08-21T20:17:44.937Z,5.78
2022-08-21T20:20:14.714Z,5.10
2022-08-21T20:22:44.717Z,5.90
2022-08-21T20:25:15.354Z,6.03
2022-08-21T20:27:45.167Z,5.53
2022-08-21T20:30:22.648Z,7.32
2022-08-21T20:32:53.180Z,6.43
2022-08-21T20:35:23.093Z,6.75
2022-08-21T20:40:45.125Z,4.40
2022-08-21T20:43:15.924Z,4.97
2022-08-21T20:45:47.487Z,4.22
2022-08-21T20:48:49.466Z,5.07
2022-08-21T20:51:31.747Z,4.57
2022-08-21T20:54:22.685Z,5.28
2022-08-21T20:57:06.738Z,3.85
2022-08-21T20:59:53.500Z,3.90
2022-08-21T21:02:51.819Z,4.38
2022-08-21T21:05:29.305Z,4.00
2022-08-21T21:08:05.382Z,4.03
2022-08-21T21:10:45.406Z,4.85
2022-08-21T21:13:20.854Z,4.07
2022-08-21T21:15:56.771Z,3.47
2022-08-21T21:18:47.132Z,4.28
2022-08-21T21:21:22.549Z,4.28
2022-08-21T21:24:13.096Z,4.45
2022-08-21T21:27:13.476Z,4.32
2022-08-21T21:30:12.420Z,4.20
2022-08-21T21:32:44.702Z,4.00
2022-08-21T21:35:32.545Z,4.32
2022-08-21T21:38:29.754Z,3.53
2022-08-21T21:41:35.846Z,4.65
2022-08-21T21:44:14.503Z,3.60
2022-08-21T21:46:51.393Z,4.13
2022-08-21T21:49:36.984Z,4.65
2022-08-21T21:52:45.564Z,4.05
2022-08-21T21:55:28.187Z,3.63
2022-08-21T21:58:27.270Z,4.93
2022-08-21T22:01:17.688Z,4.35
2022-08-21T22:04:03.831Z,4.22
2022-08-21T22:06:52.189Z,3.50
2022-08-21T22:12:25.287Z,3.83
2022-08-21T22:14:55.612Z,3.75
2022-08-21T22:17:46.654Z,3.80
2022-08-21T22:20:47.305Z,3.60
2022-08-21T22:23:27.463Z,3.88
2022-08-21T22:26:09.876Z,3.97
2022-08-21T22:28:43.288Z,3.15
2022-08-21T22:31:23.072Z,3.80
2022-08-21T22:34:18.085Z,3.50
2022-08-21T22:37:04.539Z,3.25
2022-08-21T22:39:39.322Z,3.60
2022-08-21T22:42:23.830Z,3.67
2022-08-21T22:44:57.393Z,3.50
2022-08-21T22:47:38.940Z,3.10
2022-08-21T22:50:29.775Z,3.58
2022-08-21T22:53:09.582Z,3.85
2022-08-21T22:55:49.294Z,3.60
2022-08-21T22:58:22.500Z,3.85
2022-08-21T23:01:22.845Z,3.95
2022-08-21T23:03:59.505Z,3.70
2022-08-21T23:06:39.161Z,3.42
2022-08-21T23:09:35.916Z,3.95
2022-08-21T23:12:33.045Z,3.33
2022-08-21T23:15:18.257Z,3.17
2022-08-21T23:18:07.373Z,3.67
2022-08-21T23:20:49.935Z,4.72
2022-08-21T23:23:34.912Z,3.15
2022-08-21T23:26:17.311Z,3.58
2022-08-21T23:29:25.583Z,4.35
2022-08-21T23:32:08.864Z,3.33
2022-08-21T23:34:54.293Z,4.20
2022-08-21T23:37:51.798Z,4.10
2022-08-21T23:40:50.501Z,3.38
2022-08-21T23:43:47.715Z,4.30
2022-08-21T23:46:56.219Z,3.90
2022-08-21T23:49:48.297Z,3.47
2022-08-21T23:52:34.289Z,3.63
2022-08-21T23:55:25.111Z,3.47
2022-08-21T23:58:18.568Z,3.92
